Time;durP1;ratioP1;P1;durP2;ratioP2;P2;SDS_P1;SDS_P2;PMS_P1;PMS_P2;Temp;Humidity;BMP_temperature;BMP_pressure;BME280_temperature;BME280_humidity;BME280_pressure;Samples;Min_cycle;Max_cycle;Signal;HPM_P1;HPM_P2
2022/03/17 00:01:34;;;;;;;3.67;2.97;;;19.30;47.00;;;;;;6193839;28;20019;-69
2022/03/17 00:04:35;;;;;;;3.05;2.38;;;19.30;47.00;;;;;;6193138;28;20105;-69
2022/03/17 00:07:40;;;;;;;3.40;2.60;;;19.30;47.00;;;;;;6193160;28;20077;-68
2022/03/17 00:10:40;;;;;;;3.67;2.60;;;19.30;47.00;;;;;;6193054;28;20031;-69
2022/03/17 00:13:41;;;;;;;2.78;2.33;;;19.30;47.00;;;;;;6196418;28;20393;-69
2022/03/17 00:16:42;;;;;;;2.83;2.53;;;19.30;47.10;;;;;;6197487;28;20367;-69
2022/03/17 00:19:43;;;;;;;3.10;2.35;;;19.30;47.00;;;;;;6197244;28;20247;-69
2022/03/17 00:22:43;;;;;;;3.53;2.63;;;19.30;47.00;;;;;;6197463;28;20022;-70
2022/03/17 00:25:44;;;;;;;2.95;2.45;;;19.30;47.10;;;;;;6196588;28;20050;-69
2022/03/17 00:28:44;;;;;;;3.50;2.60;;;19.30;47.00;;;;;;6197383;28;20113;-70
2022/03/17 00:31:45;;;;;;;4.50;2.75;;;19.30;47.00;;;;;;6196976;28;20022;-70
2022/03/17 00:38:17;;;;;;;3.13;2.42;;;19.30;47.00;;;;;;6197177;28;20480;-70
2022/03/17 00:41:18;;;;;;;3.08;2.47;;;19.30;47.10;;;;;;6197213;28;20519;-70
2022/03/17 00:44:18;;;;;;;3.80;2.97;;;19.30;47.00;;;;;;6196873;28;20034;-69
2022/03/17 00:47:19;;;;;;;3.63;2.55;;;19.30;47.00;;;;;;6197161;28;20026;-70
2022/03/17 00:50:19;;;;;;;2.65;2.38;;;19.30;47.00;;;;;;6196586;28;20076;-70
2022/03/17 00:53:20;;;;;;;3.20;2.63;;;19.30;47.00;;;;;;6197247;28;20026;-69
2022/03/17 00:56:20;;;;;;;3.42;2.45;;;19.30;47.00;;;;;;6196500;28;20026;-70
2022/03/17 00:59:21;;;;;;;3.85;2.78;;;19.30;47.00;;;;;;6196861;28;20039;-69
2022/03/17 01:02:21;;;;;;;3.20;2.50;;;19.30;47.00;;;;;;6196805;28;20026;-69
2022/03/17 01:05:23;;;;;;;3.30;2.80;;;19.30;47.00;;;;;;6196372;28;20440;-69
2022/03/17 01:08:23;;;;;;;4.22;2.85;;;19.30;47.00;;;;;;6196424;28;20529;-69
2022/03/17 01:11:24;;;;;;;3.00;2.67;;;19.30;47.10;;;;;;6196359;28;20044;-69
2022/03/17 01:14:25;;;;;;;3.63;2.50;;;19.20;46.90;;;;;;6196311;28;20057;-69
2022/03/17 01:17:26;;;;;;;3.28;2.53;;;19.30;47.00;;;;;;6196202;28;20121;-70
2022/03/17 01:20:26;;;;;;;3.50;2.60;;;19.30;47.00;;;;;;6195967;28;20035;-70
2022/03/17 01:23:27;;;;;;;2.92;2.53;;;19.30;47.00;;;;;;6194968;28;20073;-69
2022/03/17 01:26:27;;;;;;;3.78;2.67;;;19.30;47.10;;;;;;6195552;28;20061;-70
2022/03/17 01:29:29;;;;;;;3.50;2.50;;;19.30;47.10;;;;;;6195768;28;20466;-69
2022/03/17 01:32:32;;;;;;;3.22;2.50;;;19.30;47.00;;;;;;6195970;28;20038;-70
2022/03/17 01:35:33;;;;;;;3.03;2.42;;;19.30;47.10;;;;;;6196220;28;20080;-69
2022/03/17 01:38:34;;;;;;;2.50;2.00;;;19.30;47.10;;;;;;6195315;28;20034;-70
2022/03/17 01:41:34;;;;;;;3.08;2.45;;;19.30;47.00;;;;;;6194465;28;20489;-70
2022/03/17 01:44:36;;;;;;;3.25;2.70;;;19.30;47.10;;;;;;6195792;28;20373;-69
2022/03/17 01:47:37;;;;;;;2.90;2.50;;;19.30;47.10;;;;;;6195535;28;20031;-69
2022/03/17 01:50:38;;;;;;;2.92;2.45;;;19.30;47.10;;;;;;6195885;28;20026;-70
2022/03/17 01:53:39;;;;;;;3.47;2.45;;;19.20;47.00;;;;;;6195414;28;20102;-69
2022/03/17 01:56:40;;;;;;;3.22;2.60;;;19.20;47.00;;;;;;6195002;28;20478;-70
2022/03/17 01:59:41;;;;;;;3.35;2.63;;;19.30;47.10;;;;;;6194898;28;20034;-70
2022/03/17 02:02:42;;;;;;;3.40;2.40;;;19.30;47.10;;;;;;6194854;28;20066;-69
2022/03/17 02:05:43;;;;;;;3.63;2.20;;;19.30;47.10;;;;;;6195032;28;20037;-69
2022/03/17 02:08:44;;;;;;;3.28;2.30;;;19.30;47.10;;;;;;6195171;28;20536;-70
2022/03/17 02:15:09;;;;;;;3.10;2.28;;;19.20;47.00;;;;;;6194845;28;20026;-70
2022/03/17 02:18:10;;;;;;;3.85;2.67;;;19.20;47.00;;;;;;6194488;28;20114;-70
2022/03/17 02:21:11;;;;;;;2.55;2.20;;;19.30;47.10;;;;;;6195000;28;20646;-69
2022/03/17 02:27:35;;;;;;;3.38;2.45;;;19.20;47.00;;;;;;6194189;28;20097;-70
2022/03/17 02:30:37;;;;;;;4.65;2.67;;;19.20;47.00;;;;;;6194115;28;20385;-69
2022/03/17 02:33:40;;;;;;;4.50;2.63;;;19.30;47.10;;;;;;6194397;28;20034;-69
2022/03/17 02:36:51;;;;;;;3.45;2.50;;;19.20;47.00;;;;;;6194223;28;20022;-70
2022/03/17 02:39:51;;;;;;;3.60;2.42;;;19.20;47.00;;;;;;6193895;28;20251;-70
2022/03/17 02:42:53;;;;;;;3.30;2.45;;;19.20;47.00;;;;;;6194635;28;20466;-69
2022/03/17 02:45:53;;;;;;;3.63;2.53;;;19.20;47.00;;;;;;6194380;28;20029;-70
2022/03/17 02:48:54;;;;;;;2.90;2.30;;;19.20;47.00;;;;;;6194177;28;20026;-69
2022/03/17 02:51:54;;;;;;;3.50;2.50;;;19.20;47.00;;;;;;6194371;28;20031;-69
2022/03/17 02:54:57;;;;;;;2.55;2.30;;;19.20;47.00;;;;;;6194073;28;20061;-69
2022/03/17 02:57:57;;;;;;;2.90;2.28;;;19.20;47.00;;;;;;6193970;28;20115;-69
2022/03/17 03:00:58;;;;;;;3.45;2.60;;;19.20;47.10;;;;;;6194558;28;20038;-69
2022/03/17 03:03:59;;;;;;;3.03;2.45;;;19.20;47.10;;;;;;6193766;28;20381;-70
2022/03/17 03:07:02;;;;;;;4.45;2.72;;;19.20;47.00;;;;;;6194102;28;20084;-70
2022/03/17 03:10:04;;;;;;;3.05;2.55;;;19.20;47.00;;;;;;6192395;28;20038;-71
2022/03/17 03:13:06;;;;;;;3.58;2.78;;;19.20;47.00;;;;;;6193899;28;20402;-70
2022/03/17 03:16:06;;;;;;;4.03;2.95;;;19.20;47.10;;;;;;6194201;28;20034;-69
2022/03/17 03:19:07;;;;;;;4.38;3.13;;;19.20;47.00;;;;;;6193528;28;20073;-69
2022/03/17 03:22:08;;;;;;;3.17;2.58;;;19.30;47.10;;;;;;6194059;28;20022;-70
2022/03/17 03:25:09;;;;;;;3.28;2.55;;;19.20;47.10;;;;;;6193466;28;20054;-69
2022/03/17 03:28:11;;;;;;;3.15;2.50;;;19.20;47.00;;;;;;6193723;28;20026;-70
2022/03/17 03:31:11;;;;;;;3.22;2.40;;;19.20;47.10;;;;;;6193129;28;20022;-70
2022/03/17 03:34:12;;;;;;;4.55;2.95;;;19.20;47.10;;;;;;6193198;28;20022;-70
2022/03/17 03:37:25;;;;;;;4.38;2.47;;;19.20;47.00;;;;;;6194003;28;20030;-69
2022/03/17 03:40:26;;;;;;;3.83;2.80;;;19.20;47.00;;;;;;6193809;28;20429;-70
2022/03/17 03:43:27;;;;;;;4.97;2.75;;;19.30;47.20;;;;;;6193129;28;20036;-69
2022/03/17 03:46:27;;;;;;;2.97;2.60;;;19.20;47.00;;;;;;6193679;28;20524;-70
2022/03/17 03:49:28;;;;;;;3.20;2.67;;;19.30;47.20;;;;;;6201634;28;20058;-70
2022/03/17 03:52:28;;;;;;;3.65;2.75;;;19.20;47.10;;;;;;6198550;28;20042;-69
2022/03/17 03:55:29;;;;;;;3.00;2.33;;;19.20;47.00;;;;;;6198060;28;20036;-69
2022/03/17 03:58:30;;;;;;;3.13;2.60;;;19.20;47.10;;;;;;6198560;28;20022;-69
2022/03/17 04:01:32;;;;;;;3.40;2.50;;;19.20;47.10;;;;;;6197871;28;20037;-69
2022/03/17 04:04:34;;;;;;;3.70;3.03;;;19.20;47.00;;;;;;6196977;28;21007;-69
2022/03/17 04:07:35;;;;;;;3.15;2.58;;;19.20;47.10;;;;;;6197893;28;20459;-69
2022/03/17 04:10:35;;;;;;;3.58;2.90;;;19.20;47.10;;;;;;6197722;28;20507;-70
2022/03/17 04:13:36;;;;;;;3.65;2.55;;;19.20;47.10;;;;;;6198093;28;20034;-69
2022/03/17 04:16:37;;;;;;;3.83;2.70;;;19.20;47.10;;;;;;6197736;28;20540;-70
2022/03/17 04:19:37;;;;;;;3.95;2.90;;;19.20;47.10;;;;;;6197536;28;20099;-70
2022/03/17 04:22:38;;;;;;;3.80;2.67;;;19.20;47.10;;;;;;6197610;28;20030;-70
2022/03/17 04:25:39;;;;;;;3.63;2.67;;;19.20;47.10;;;;;;6197336;28;20046;-70
2022/03/17 04:28:39;;;;;;;3.20;2.40;;;19.20;47.10;;;;;;6196955;28;20037;-69
2022/03/17 04:31:41;;;;;;;3.90;3.03;;;19.20;47.10;;;;;;6197209;28;20492;-69
2022/03/17 04:34:42;;;;;;;3.50;2.78;;;19.20;47.10;;;;;;6192906;28;20026;-69
2022/03/17 04:37:42;;;;;;;5.95;2.67;;;19.20;47.10;;;;;;6197221;28;20033;-69
2022/03/17 04:40:49;;;;;;;5.63;2.53;;;19.20;47.00;;;;;;6197191;28;20046;-69
2022/03/17 04:43:50;;;;;;;3.60;2.70;;;19.20;47.00;;;;;;6196793;28;20031;-70
2022/03/17 04:46:50;;;;;;;3.40;2.70;;;19.20;47.10;;;;;;6196697;28;20035;-69
2022/03/17 04:49:52;;;;;;;3.45;2.88;;;19.20;47.10;;;;;;6196550;28;20405;-70
2022/03/17 04:56:17;;;;;;;4.05;2.72;;;19.20;47.10;;;;;;6196811;28;20018;-69
2022/03/17 05:03:15;;;;;;;3.92;3.00;;;19.20;47.00;;;;;;6196487;28;20031;-69
2022/03/17 05:06:16;;;;;;;3.35;2.75;;;19.20;47.10;;;;;;6196622;28;20394;-69
2022/03/17 05:09:17;;;;;;;4.07;2.65;;;19.20;47.00;;;;;;6196334;28;20473;-68
2022/03/17 05:12:17;;;;;;;3.75;2.95;;;19.20;47.10;;;;;;6196350;28;20034;-69
2022/03/17 05:15:18;;;;;;;3.47;2.90;;;19.20;47.10;;;;;;6196419;28;20026;-69
2022/03/17 05:18:19;;;;;;;3.22;2.70;;;19.20;47.00;;;;;;6195999;28;20034;-69
2022/03/17 05:21:20;;;;;;;4.80;2.92;;;19.20;47.10;;;;;;6196187;28;20022;-69
2022/03/17 05:24:20;;;;;;;3.63;2.97;;;19.20;47.00;;;;;;6194559;28;20037;-69
2022/03/17 05:27:21;;;;;;;4.13;3.25;;;19.20;47.00;;;;;;6196093;28;20108;-69
2022/03/17 05:30:22;;;;;;;5.10;3.25;;;19.20;47.00;;;;;;6195740;28;20022;-68
2022/03/17 05:33:22;;;;;;;3.80;2.67;;;19.20;46.90;;;;;;6196155;28;20477;-68
2022/03/17 05:36:25;;;;;;;3.33;2.90;;;19.20;47.00;;;;;;6195555;28;20080;-68
2022/03/17 05:39:26;;;;;;;4.18;3.00;;;19.20;46.90;;;;;;6195671;28;20065;-68
2022/03/17 05:42:26;;;;;;;3.58;2.72;;;19.20;46.90;;;;;;6195652;28;20015;-68
2022/03/17 05:45:28;;;;;;;4.25;2.90;;;19.30;47.00;;;;;;6195449;28;20444;-68
2022/03/17 05:48:29;;;;;;;5.05;3.15;;;19.30;47.00;;;;;;6195539;28;20023;-68
2022/03/17 05:51:29;;;;;;;4.20;3.28;;;19.20;46.90;;;;;;6195923;28;20088;-68
2022/03/17 05:54:30;;;;;;;3.78;2.92;;;19.20;46.90;;;;;;6195499;28;20568;-68
2022/03/17 05:57:30;;;;;;;4.35;3.25;;;19.30;47.00;;;;;;6194978;28;20026;-68
2022/03/17 06:00:31;;;;;;;3.50;2.80;;;19.30;47.00;;;;;;6195186;28;20043;-68
2022/03/17 06:03:32;;;;;;;3.55;2.80;;;19.30;47.00;;;;;;6172220;28;20023;-68
2022/03/17 06:06:33;;;;;;;4.20;3.00;;;19.30;47.00;;;;;;6171288;28;21015;-68
2022/03/17 06:09:33;;;;;;;3.20;2.80;;;19.30;47.00;;;;;;6170036;28;20022;-68
2022/03/17 06:12:34;;;;;;;6.75;2.90;;;19.30;47.00;;;;;;6171571;28;20031;-68
2022/03/17 06:15:35;;;;;;;4.95;2.97;;;19.30;47.00;;;;;;6180961;28;20027;-68
2022/03/17 06:18:36;;;;;;;3.58;2.72;;;19.30;47.00;;;;;;6194799;28;20037;-68
2022/03/17 06:21:36;;;;;;;6.15;3.40;;;19.30;47.00;;;;;;6194720;28;20026;-68
2022/03/17 06:24:37;;;;;;;4.78;3.50;;;19.30;46.90;;;;;;6194355;28;20409;-68
2022/03/17 06:27:37;;;;;;;4.40;3.30;;;19.30;47.00;;;;;;6194311;28;20050;-67
2022/03/17 06:30:38;;;;;;;3.60;2.92;;;19.30;46.90;;;;;;6194658;28;20018;-68
2022/03/17 06:33:38;;;;;;;4.68;3.70;;;19.30;47.00;;;;;;6194483;28;20508;-69
2022/03/17 06:36:39;;;;;;;4.40;3.20;;;19.30;47.00;;;;;;6194271;28;20109;-69
2022/03/17 06:39:39;;;;;;;3.60;2.92;;;19.30;46.90;;;;;;6194041;28;20066;-69
2022/03/17 06:42:40;;;;;;;4.13;3.15;;;19.30;47.00;;;;;;6194668;28;20026;-69
2022/03/17 06:45:41;;;;;;;4.25;3.20;;;19.30;47.00;;;;;;6192800;28;20060;-68
2022/03/17 06:48:42;;;;;;;4.38;3.28;;;19.30;46.90;;;;;;6194078;28;20412;-68
2022/03/17 06:51:42;;;;;;;4.47;3.40;;;19.30;46.90;;;;;;6193660;28;20026;-69
2022/03/17 06:54:43;;;;;;;4.88;3.28;;;19.30;46.90;;;;;;6194383;28;20036;-69
2022/03/17 06:57:44;;;;;;;6.15;3.65;;;19.30;46.90;;;;;;6193799;28;20030;-68
2022/03/17 07:00:44;;;;;;;3.85;3.13;;;19.30;46.90;;;;;;6188577;28;20444;-69
2022/03/17 07:03:45;;;;;;;4.82;3.17;;;19.30;46.90;;;;;;6212833;28;20054;-68
2022/03/17 07:06:45;;;;;;;4.13;3.17;;;19.30;46.90;;;;;;6196293;28;20034;-69
2022/03/17 07:09:46;;;;;;;4.47;3.30;;;19.30;46.90;;;;;;6215247;28;20026;-68
2022/03/17 07:12:47;;;;;;;5.55;3.97;;;19.30;46.90;;;;;;6220303;28;20405;-68
2022/03/17 07:15:48;;;;;;;5.22;3.90;;;19.30;46.90;;;;;;6220287;28;20493;-68
2022/03/17 07:18:49;;;;;;;4.82;3.55;;;19.30;46.90;;;;;;6220025;28;20030;-68
2022/03/17 07:21:52;;;;;;;5.75;4.13;;;19.30;46.90;;;;;;6219083;28;20030;-69
2022/03/17 07:24:53;;;;;;;4.68;3.58;;;19.30;46.80;;;;;;6220417;28;20066;-69
2022/03/17 07:27:53;;;;;;;5.43;3.83;;;19.30;46.80;;;;;;6200414;28;20047;-69
2022/03/17 07:30:54;;;;;;;4.53;3.30;;;19.30;46.80;;;;;;6200535;28;20049;-69
2022/03/17 07:33:54;;;;;;;6.82;4.18;;;19.30;46.80;;;;;;6200711;28;20041;-68
2022/03/17 07:36:55;;;;;;;5.22;3.40;;;19.30;46.80;;;;;;6200541;28;20064;-68
2022/03/17 07:39:55;;;;;;;6.10;4.28;;;19.30;46.80;;;;;;6200321;28;20036;-68
2022/03/17 07:42:56;;;;;;;4.40;3.63;;;19.30;46.80;;;;;;6200564;28;20123;-68
2022/03/17 07:45:56;;;;;;;6.32;4.15;;;19.30;46.80;;;;;;6200729;28;20029;-69
2022/03/17 07:48:57;;;;;;;5.75;3.80;;;19.30;46.80;;;;;;6200651;28;20026;-69
2022/03/17 07:51:57;;;;;;;5.28;3.88;;;19.30;46.80;;;;;;6200104;28;20486;-68
2022/03/17 07:54:58;;;;;;;5.68;3.63;;;19.30;46.80;;;;;;6200464;28;20026;-69
2022/03/17 07:58:00;;;;;;;5.43;4.10;;;19.30;46.80;;;;;;6199626;28;20370;-68
2022/03/17 08:01:02;;;;;;;6.22;4.30;;;19.30;46.80;;;;;;6200335;28;20113;-69
2022/03/17 08:04:03;;;;;;;6.50;3.92;;;19.30;46.90;;;;;;6199841;28;20049;-69
2022/03/17 08:07:04;;;;;;;5.88;3.75;;;19.30;46.80;;;;;;6200091;28;20026;-68
2022/03/17 08:10:05;;;;;;;6.18;3.78;;;19.30;46.80;;;;;;6199805;28;20062;-69
2022/03/17 08:13:06;;;;;;;5.72;3.95;;;19.30;46.80;;;;;;6199951;28;20036;-69
2022/03/17 08:16:10;;;;;;;5.03;4.10;;;19.30;46.80;;;;;;6199873;28;20088;-69
2022/03/17 08:19:11;;;;;;;5.25;4.03;;;19.30;46.80;;;;;;6199400;28;20038;-68
2022/03/17 08:22:12;;;;;;;6.28;4.30;;;19.30;46.80;;;;;;6200234;28;20046;-69
2022/03/17 08:25:12;;;;;;;7.05;4.57;;;19.30;46.80;;;;;;6199093;28;20042;-69
2022/03/17 08:28:12;;;;;;;6.13;4.30;;;19.30;46.80;;;;;;6199171;28;20050;-68
2022/03/17 08:31:14;;;;;;;6.43;4.25;;;19.30;46.80;;;;;;6199298;28;20030;-69
2022/03/17 08:34:14;;;;;;;5.65;4.30;;;19.30;46.80;;;;;;6199327;28;20015;-69
2022/03/17 08:37:15;;;;;;;6.93;3.97;;;19.30;46.80;;;;;;6199258;28;20027;-68
2022/03/17 08:40:15;;;;;;;6.10;4.47;;;19.30;46.80;;;;;;6199383;28;20038;-70
2022/03/17 08:43:16;;;;;;;6.47;4.63;;;19.30;46.80;;;;;;6198948;28;20026;-69
2022/03/17 08:49:36;;;;;;;7.30;4.72;;;19.30;46.80;;;;;;6199055;28;20034;-69
2022/03/17 08:52:36;;;;;;;5.68;4.40;;;19.30;46.80;;;;;;6199165;28;20057;-69
2022/03/17 08:55:39;;;;;;;5.70;4.03;;;19.30;46.80;;;;;;6199189;28;20049;-69
2022/03/17 08:58:39;;;;;;;6.57;4.45;;;19.30;46.80;;;;;;6198783;28;20050;-69
2022/03/17 09:01:40;;;;;;;7.53;4.97;;;19.30;46.80;;;;;;6199058;28;20038;-68
2022/03/17 09:04:40;;;;;;;6.90;4.65;;;19.30;46.80;;;;;;6198939;28;20058;-68
2022/03/17 09:07:41;;;;;;;6.28;4.50;;;19.30;46.80;;;;;;6199033;28;20081;-68
2022/03/17 09:10:42;;;;;;;7.00;4.88;;;19.30;46.80;;;;;;6198540;28;20452;-69
2022/03/17 09:13:42;;;;;;;6.03;4.22;;;19.30;46.80;;;;;;6198437;28;20026;-69
2022/03/17 09:16:43;;;;;;;8.48;4.78;;;19.30;46.80;;;;;;6198637;28;20022;-68
2022/03/17 09:19:43;;;;;;;6.60;4.60;;;19.30;46.80;;;;;;6198045;28;20034;-69
2022/03/17 09:22:45;;;;;;;7.93;5.20;;;19.30;46.80;;;;;;6198652;28;20042;-68
2022/03/17 09:25:45;;;;;;;6.97;4.55;;;19.30;46.80;;;;;;6197325;28;20133;-68
2022/03/17 09:28:46;;;;;;;9.13;5.00;;;19.30;47.50;;;;;;6197479;28;20381;-69
2022/03/17 09:31:47;;;;;;;8.88;4.90;;;19.30;46.80;;;;;;6198198;28;20060;-68
2022/03/17 09:34:47;;;;;;;8.27;5.03;;;19.30;46.80;;;;;;6198209;28;20597;-69
2022/03/17 09:37:49;;;;;;;6.65;4.85;;;19.30;46.70;;;;;;6197713;28;20056;-69
2022/03/17 09:40:50;;;;;;;7.03;4.90;;;19.30;46.80;;;;;;6197847;28;20084;-69
2022/03/17 09:43:52;;;;;;;6.78;4.55;;;19.30;46.80;;;;;;6197669;28;20030;-68
2022/03/17 09:46:55;;;;;;;8.18;5.25;;;19.30;46.70;;;;;;6196939;28;20523;-68
2022/03/17 09:49:56;;;;;;;6.90;4.65;;;19.30;46.70;;;;;;6197587;28;20085;-68
2022/03/17 09:52:57;;;;;;;6.85;4.72;;;19.30;46.70;;;;;;6197501;28;20025;-68
2022/03/17 09:55:58;;;;;;;7.43;5.35;;;19.30;46.70;;;;;;6197498;28;20033;-68
2022/03/17 09:59:01;;;;;;;7.25;5.03;;;19.30;46.70;;;;;;6196910;28;20061;-69
2022/03/17 10:02:02;;;;;;;7.25;4.90;;;19.30;46.90;;;;;;6197468;28;20026;-69
2022/03/17 10:05:03;;;;;;;7.88;5.22;;;19.30;46.70;;;;;;6196773;28;20384;-69
2022/03/17 10:08:04;;;;;;;6.65;4.78;;;19.30;46.70;;;;;;6196923;28;20030;-69
2022/03/17 10:11:06;;;;;;;8.20;4.95;;;19.30;46.70;;;;;;6197025;28;20034;-68
2022/03/17 10:14:07;;;;;;;6.80;4.93;;;19.30;46.70;;;;;;6197225;28;20481;-69
2022/03/17 10:17:29;;;;;;;8.02;5.32;;;19.30;46.70;;;;;;6196697;28;20077;-69
2022/03/17 10:20:31;;;;;;;6.28;4.80;;;19.30;46.70;;;;;;6196104;28;20133;-69
2022/03/17 10:23:32;;;;;;;7.75;5.07;;;19.30;46.70;;;;;;6196765;28;20038;-69
2022/03/17 10:26:40;;;;;;;7.40;5.10;;;19.30;46.80;;;;;;6196354;28;20057;-68
2022/03/17 10:29:41;;;;;;;6.97;4.80;;;19.30;46.70;;;;;;6196337;28;20176;-68
2022/03/17 10:32:54;;;;;;;10.05;5.07;;;19.30;46.70;;;;;;6196711;28;20030;-68
2022/03/17 10:36:15;;;;;;;7.50;5.28;;;19.30;46.70;;;;;;6196544;28;20030;-69
2022/03/17 10:39:17;;;;;;;8.48;5.28;;;19.30;46.70;;;;;;6196544;28;20034;-69
2022/03/17 10:42:20;;;;;;;6.10;4.75;;;19.30;46.70;;;;;;6195986;28;20030;-68
2022/03/17 10:45:28;;;;;;;6.28;4.50;;;19.30;46.70;;;;;;6196560;28;20034;-68
2022/03/17 10:48:28;;;;;;;9.25;4.88;;;19.30;46.70;;;;;;6196098;28;20477;-68
2022/03/17 10:51:43;;;;;;;7.65;5.22;;;19.30;46.70;;;;;;6196615;28;20033;-69
2022/03/17 10:54:56;;;;;;;7.78;5.10;;;19.30;46.70;;;;;;6196639;28;20500;-68
2022/03/17 10:58:15;;;;;;;6.90;4.97;;;19.30;46.70;;;;;;6195820;28;20401;-68
2022/03/17 11:01:16;;;;;;;6.47;4.50;;;19.30;46.70;;;;;;6195812;28;20034;-68
2022/03/17 11:04:16;;;;;;;6.18;4.60;;;19.30;46.70;;;;;;6196575;28;20386;-69
2022/03/17 11:07:19;;;;;;;8.02;5.25;;;19.30;46.70;;;;;;6196197;28;20098;-68
2022/03/17 11:10:22;;;;;;;8.13;5.15;;;19.30;46.70;;;;;;6195958;28;20053;-69
2022/03/17 11:13:22;;;;;;;8.20;5.28;;;19.30;46.70;;;;;;6196560;28;20035;-69
2022/03/17 11:16:30;;;;;;;6.70;4.80;;;19.30;46.70;;;;;;6196283;28;20060;-69
2022/03/17 11:19:32;;;;;;;7.75;5.20;;;19.30;46.70;;;;;;6195581;28;20041;-68
2022/03/17 11:22:34;;;;;;;8.02;4.90;;;19.30;46.70;;;;;;6196194;28;20470;-69
2022/03/17 11:25:34;;;;;;;7.70;5.10;;;19.30;46.70;;;;;;6195404;28;20050;-68
2022/03/17 11:28:39;;;;;;;7.00;5.00;;;19.30;46.70;;;;;;6196100;28;20026;-68
2022/03/17 11:31:50;;;;;;;8.40;5.45;;;19.30;46.70;;;;;;6195593;28;20429;-68
2022/03/17 11:35:03;;;;;;;6.60;5.05;;;19.30;46.70;;;;;;6195880;28;20109;-68
2022/03/17 11:38:23;;;;;;;8.05;5.63;;;19.30;46.70;;;;;;6195783;28;20034;-68
2022/03/17 11:41:24;;;;;;;6.57;4.70;;;19.30;46.70;;;;;;6195584;28;20034;-69
2022/03/17 11:44:34;;;;;;;7.53;4.93;;;19.30;46.70;;;;;;6195500;28;20023;-69
2022/03/17 11:47:39;;;;;;;6.93;5.20;;;19.30;46.70;;;;;;6195676;28;20022;-69
2022/03/17 11:50:42;;;;;;;7.40;5.30;;;19.30;46.70;;;;;;6195618;28;20488;-69
2022/03/17 11:53:52;;;;;;;9.00;5.30;;;19.30;46.70;;;;;;6195234;28;20065;-69
2022/03/17 11:56:56;;;;;;;7.25;4.97;;;19.30;46.70;;;;;;6195521;28;20034;-68
2022/03/17 11:59:58;;;;;;;7.82;5.53;;;19.30;46.70;;;;;;6195321;28;20481;-68
2022/03/17 12:03:06;;;;;;;7.40;5.68;;;19.30;46.70;;;;;;6195423;28;20033;-69
2022/03/17 12:06:18;;;;;;;8.55;5.60;;;19.30;46.70;;;;;;6195574;28;20030;-69
2022/03/17 12:09:30;;;;;;;7.28;4.97;;;19.30;46.70;;;;;;6197985;28;20085;-68
2022/03/17 12:12:32;;;;;;;6.40;5.15;;;19.30;46.70;;;;;;6199799;28;20018;-69
2022/03/17 12:15:39;;;;;;;7.63;4.90;;;19.30;46.70;;;;;;6198662;28;20049;-69
2022/03/17 12:19:02;;;;;;;8.18;5.82;;;19.30;46.70;;;;;;6199550;28;20026;-68
2022/03/17 12:22:09;;;;;;;7.32;5.38;;;19.30;46.70;;;;;;6199706;28;20037;-69
2022/03/17 12:25:14;;;;;;;7.57;5.28;;;19.30;46.70;;;;;;6199093;28;20065;-69
2022/03/17 12:28:15;;;;;;;7.15;5.40;;;19.30;46.70;;;;;;6199737;28;20521;-68
2022/03/17 12:31:16;;;;;;;9.55;4.97;;;19.30;46.70;;;;;;6199902;28;20018;-68
2022/03/17 12:34:17;;;;;;;7.40;5.20;;;19.30;46.70;;;;;;6199528;28;20030;-68
2022/03/17 12:37:19;;;;;;;6.95;5.20;;;19.30;46.80;;;;;;6198853;28;20490;-68
2022/03/17 12:40:20;;;;;;;7.47;5.45;;;19.30;46.70;;;;;;6199132;28;20515;-68
2022/03/17 12:43:22;;;;;;;8.05;5.95;;;19.30;46.70;;;;;;6199009;28;20022;-68
2022/03/17 12:46:23;;;;;;;8.05;5.68;;;19.30;46.70;;;;;;6199254;28;20027;-68
2022/03/17 12:49:23;;;;;;;8.27;5.60;;;19.30;46.80;;;;;;6198961;28;20030;-68
2022/03/17 12:52:26;;;;;;;8.98;6.00;;;19.30;46.70;;;;;;6198857;28;20038;-68
2022/03/17 12:55:27;;;;;;;7.65;5.45;;;19.30;46.80;;;;;;6198657;28;20030;-68
2022/03/17 12:58:27;;;;;;;7.45;5.53;;;19.30;46.80;;;;;;6198720;28;20030;-68
2022/03/17 13:01:28;;;;;;;8.07;5.47;;;19.30;46.80;;;;;;6198540;28;20355;-68
2022/03/17 13:04:28;;;;;;;7.57;5.32;;;19.30;46.70;;;;;;6198509;28;20098;-68
2022/03/17 13:07:30;;;;;;;6.65;4.80;;;19.30;46.80;;;;;;6198689;28;20031;-69
2022/03/17 13:17:10;;;;;;;9.82;4.65;;;19.30;46.70;;;;;;6198125;28;20489;-68
2022/03/17 13:20:19;;;;;;;6.72;5.28;;;19.30;46.80;;;;;;6198483;28;20042;-69
2022/03/17 13:23:33;;;;;;;8.15;5.13;;;19.30;46.80;;;;;;6197738;28;20022;-68
2022/03/17 13:26:33;;;;;;;7.40;5.78;;;19.30;46.70;;;;;;6197901;28;20057;-69
2022/03/17 13:29:35;;;;;;;8.27;5.65;;;19.30;46.70;;;;;;6197576;28;20022;-69
2022/03/17 13:32:35;;;;;;;7.35;5.18;;;19.30;46.70;;;;;;6198129;28;20065;-69
2022/03/17 13:35:38;;;;;;;8.00;5.47;;;19.30;46.80;;;;;;6197659;28;20026;-69
2022/03/17 13:38:39;;;;;;;6.60;4.95;;;19.30;46.70;;;;;;6197713;28;20370;-68
2022/03/17 13:41:39;;;;;;;9.80;5.03;;;19.30;46.70;;;;;;6198004;28;20101;-69
2022/03/17 13:44:53;;;;;;;7.43;5.30;;;19.30;46.70;;;;;;6197700;28;20080;-69
2022/03/17 13:48:03;;;;;;;7.70;5.32;;;19.30;46.70;;;;;;6197427;28;20535;-69
2022/03/17 13:51:03;;;;;;;7.78;5.78;;;19.30;46.70;;;;;;6198018;28;20090;-68
2022/03/17 13:54:04;;;;;;;8.13;5.72;;;19.30;46.70;;;;;;6197488;28;20127;-68
2022/03/17 13:57:05;;;;;;;8.95;5.47;;;19.30;46.70;;;;;;6197720;28;20023;-68
2022/03/17 14:00:19;;;;;;;6.93;5.18;;;19.30;46.80;;;;;;6197492;28;20085;-68
2022/03/17 14:03:30;;;;;;;7.43;5.55;;;19.30;46.80;;;;;;6196134;28;20022;-68
2022/03/17 14:06:32;;;;;;;6.30;4.88;;;19.30;46.80;;;;;;6197366;28;20028;-69
2022/03/17 14:09:33;;;;;;;6.90;4.93;;;19.30;46.70;;;;;;6197283;28;20393;-68
2022/03/17 14:12:34;;;;;;;8.00;5.53;;;19.30;46.80;;;;;;6196773;28;20041;-68
2022/03/17 14:15:35;;;;;;;8.10;5.55;;;19.30;46.80;;;;;;6197234;28;20487;-68
2022/03/17 14:18:36;;;;;;;8.15;6.00;;;19.30;46.80;;;;;;6196971;28;20037;-68
2022/03/17 14:24:10;;;;;;;7.35;5.32;;;19.30;46.80;;;;;;6197022;28;20038;-69
2022/03/17 14:24:57;;;;;;;8.50;6.05;;;19.30;46.70;;;;;;6196234;28;20385;-68
2022/03/17 14:27:58;;;;;;;9.27;6.00;;;19.30;46.70;;;;;;6196306;28;20096;-68
2022/03/17 14:30:58;;;;;;;7.88;5.28;;;19.30;46.80;;;;;;6196048;28;20065;-68
2022/03/17 14:34:01;;;;;;;6.18;4.82;;;19.30;46.80;;;;;;6196501;28;20026;-68
2022/03/17 14:37:03;;;;;;;6.32;5.07;;;19.30;46.80;;;;;;6196927;28;20014;-68
2022/03/17 14:40:04;;;;;;;7.70;5.10;;;19.30;46.70;;;;;;6196108;28;20037;-69
2022/03/17 14:43:05;;;;;;;8.23;5.30;;;19.30;46.80;;;;;;6196757;28;20038;-68
2022/03/17 14:46:06;;;;;;;9.10;5.35;;;19.30;46.80;;;;;;6196075;28;20053;-68
2022/03/17 14:49:08;;;;;;;7.13;5.05;;;19.30;46.80;;;;;;6196368;28;20026;-68
2022/03/17 14:52:09;;;;;;;6.82;4.90;;;19.30;46.70;;;;;;6196433;28;20026;-68
2022/03/17 14:55:11;;;;;;;7.95;5.55;;;19.30;46.80;;;;;;6196295;28;20057;-69
2022/03/17 14:58:12;;;;;;;10.73;5.47;;;19.30;46.80;;;;;;6195954;28;20478;-69
2022/03/17 15:01:15;;;;;;;7.15;5.22;;;19.30;46.80;;;;;;6196603;28;20022;-70
2022/03/17 15:04:16;;;;;;;8.05;5.78;;;19.30;46.80;;;;;;6196230;28;20121;-68
2022/03/17 15:07:16;;;;;;;7.53;5.05;;;19.30;46.80;;;;;;6196152;28;20496;-69
2022/03/17 15:10:17;;;;;;;6.78;5.03;;;19.30;46.80;;;;;;6195787;28;20455;-69
2022/03/17 15:13:18;;;;;;;7.22;5.50;;;19.30;46.80;;;;;;6195525;28;20030;-68
2022/03/17 15:16:19;;;;;;;7.22;5.00;;;19.30;46.80;;;;;;6196158;28;20057;-69
2022/03/17 15:19:20;;;;;;;6.97;5.15;;;19.30;46.80;;;;;;6194349;28;20512;-69
2022/03/17 15:22:21;;;;;;;6.65;4.88;;;19.30;46.80;;;;;;6195521;28;20030;-68
2022/03/17 15:25:22;;;;;;;6.78;4.70;;;19.30;46.80;;;;;;6195728;28;20101;-69
2022/03/17 15:31:44;;;;;;;7.25;5.25;;;19.30;46.80;;;;;;6195798;28;20401;-69
2022/03/17 15:34:45;;;;;;;5.93;4.78;;;19.30;46.80;;;;;;6195828;28;20023;-69
2022/03/17 15:37:46;;;;;;;5.95;5.28;;;19.30;46.80;;;;;;6195771;28;20473;-68
2022/03/17 15:40:49;;;;;;;6.75;4.70;;;19.30;46.80;;;;;;6195040;28;20440;-69
2022/03/17 15:43:50;;;;;;;7.82;5.18;;;19.30;46.80;;;;;;6197395;28;20041;-69
2022/03/17 15:46:50;;;;;;;6.00;4.72;;;19.30;46.80;;;;;;6200599;28;20026;-68
2022/03/17 15:49:51;;;;;;;7.45;4.90;;;19.30;46.80;;;;;;6200470;28;20118;-68
2022/03/17 15:52:52;;;;;;;6.78;4.93;;;19.30;46.80;;;;;;6200689;28;20113;-69
2022/03/17 15:55:54;;;;;;;7.35;5.18;;;19.30;46.80;;;;;;6200489;28;20026;-69
2022/03/17 15:58:54;;;;;;;6.32;4.72;;;19.30;46.80;;;;;;6200309;28;20045;-69
2022/03/17 16:01:55;;;;;;;7.63;4.70;;;19.30;46.80;;;;;;6201599;28;20473;-69
2022/03/17 16:04:55;;;;;;;5.70;4.63;;;19.30;46.80;;;;;;6199904;28;20030;-69
2022/03/17 16:07:56;;;;;;;5.68;4.43;;;19.30;46.80;;;;;;6199691;28;20042;-69
2022/03/17 16:14:33;;;;;;;7.18;5.10;;;19.30;46.80;;;;;;6199901;28;20042;-68
2022/03/17 16:17:33;;;;;;;7.38;5.18;;;19.30;46.80;;;;;;6199282;28;20363;-68
2022/03/17 16:20:34;;;;;;;7.55;4.90;;;19.30;46.80;;;;;;6199654;28;20034;-69
2022/03/17 16:23:37;;;;;;;6.30;4.50;;;19.30;46.80;;;;;;6199677;28;20014;-68